createdAt,value
2023-03-30T00:01:15.190Z,68.72
2023-03-30T00:03:43.408Z,68.51
2023-03-30T00:06:12.452Z,68.77
2023-03-30T00:08:39.111Z,69.74
2023-03-30T00:11:09.201Z,68.71
2023-03-30T00:13:37.124Z,68.52
2023-03-30T00:16:06.337Z,68.86
2023-03-30T00:18:34.458Z,68.87
2023-03-30T00:21:02.975Z,69.18
2023-03-30T00:23:32.299Z,68.37
2023-03-30T00:25:59.954Z,68.10
2023-03-30T00:28:27.113Z,67.53
2023-03-30T00:30:54.092Z,67.84
2023-03-30T00:33:30.410Z,68.26
2023-03-30T00:36:00.772Z,68.03
2023-03-30T00:38:27.531Z,68.06
2023-03-30T00:40:56.585Z,67.94
2023-03-30T00:43:23.945Z,68.03
2023-03-30T00:45:51.994Z,68.71
2023-03-30T00:48:36.873Z,68.21
2023-03-30T00:51:09.840Z,68.78
2023-03-30T00:53:47.206Z,68.52
2023-03-30T00:56:16.583Z,67.08
2023-03-30T00:58:44.821Z,67.27
2023-03-30T01:01:14.856Z,67.41
2023-03-30T01:03:48.301Z,68.39
2023-03-30T01:06:18.201Z,68.24
2023-03-30T01:08:45.386Z,68.62
2023-03-30T01:11:12.042Z,68.74
2023-03-30T01:13:42.490Z,68.73
2023-03-30T01:16:09.613Z,68.55
2023-03-30T01:18:47.730Z,68.33
2023-03-30T01:21:27.789Z,68.24
2023-03-30T01:24:34.865Z,68.10
2023-03-30T01:27:49.860Z,68.47
2023-03-30T01:30:30.119Z,67.76
2023-03-30T01:33:21.585Z,66.96
2023-03-30T01:36:17.903Z,67.60
2023-03-30T01:38:44.564Z,68.42
2023-03-30T01:41:24.880Z,68.56
2023-03-30T01:43:56.886Z,68.62
2023-03-30T01:46:30.825Z,68.55
2023-03-30T01:49:11.729Z,69.42
2023-03-30T01:51:54.274Z,69.40
2023-03-30T01:54:26.654Z,70.04
2023-03-30T01:56:57.282Z,69.14
2023-03-30T01:59:41.864Z,70.33
2023-03-30T02:02:11.565Z,70.09
2023-03-30T02:04:42.980Z,70.51
2023-03-30T02:07:19.373Z,70.10
2023-03-30T02:09:49.722Z,70.05
2023-03-30T02:12:18.488Z,69.71
2023-03-30T02:14:49.371Z,69.33
2023-03-30T02:17:20.868Z,70.08
2023-03-30T02:19:47.765Z,70.17
2023-03-30T02:22:17.849Z,69.90
2023-03-30T02:24:48.393Z,70.23
2023-03-30T02:27:16.371Z,70.34
2023-03-30T02:29:45.631Z,70.27
2023-03-30T02:32:22.265Z,70.29
2023-03-30T02:34:52.048Z,70.88
2023-03-30T02:37:37.000Z,70.59
2023-03-30T02:40:27.565Z,70.41
2023-03-30T02:43:21.369Z,70.84
2023-03-30T02:45:54.090Z,70.72
2023-03-30T02:48:42.541Z,70.67
2023-03-30T02:51:27.415Z,70.71
2023-03-30T02:53:56.942Z,71.04
2023-03-30T02:56:41.216Z,70.84
2023-03-30T02:59:17.435Z,70.95
2023-03-30T03:01:51.186Z,70.67
2023-03-30T03:04:19.571Z,71.10
2023-03-30T03:06:46.549Z,70.93
2023-03-30T03:09:13.189Z,70.85
2023-03-30T03:11:39.914Z,70.60
2023-03-30T03:14:07.946Z,71.12
2023-03-30T03:16:34.782Z,71.33
2023-03-30T03:19:01.547Z,70.96
2023-03-30T03:21:28.186Z,71.14
2023-03-30T03:23:54.824Z,71.08
2023-03-30T03:26:22.762Z,71.44
2023-03-30T03:28:49.360Z,71.13
2023-03-30T03:31:16.115Z,70.92
2023-03-30T03:33:42.834Z,69.74
2023-03-30T03:36:12.316Z,70.70
2023-03-30T03:38:39.085Z,69.36
2023-03-30T03:41:06.968Z,69.18
2023-03-30T03:43:33.692Z,70.20
2023-03-30T03:46:00.486Z,71.65
2023-03-30T03:48:27.302Z,73.15
2023-03-30T03:50:58.409Z,76.25
2023-03-30T03:53:27.676Z,77.38
2023-03-30T03:55:54.856Z,77.51
2023-03-30T03:58:21.848Z,78.44
2023-03-30T04:00:49.092Z,78.41
2023-03-30T04:03:16.126Z,78.47
2023-03-30T04:05:43.359Z,79.44
2023-03-30T04:08:10.831Z,78.75
2023-03-30T04:10:41.786Z,80.14
2023-03-30T04:13:08.472Z,80.23
2023-03-30T04:15:35.460Z,80.63
2023-03-30T04:18:02.423Z,80.62
2023-03-30T04:20:30.030Z,80.87
2023-03-30T04:22:57.069Z,81.29
2023-03-30T04:25:29.110Z,80.64
2023-03-30T04:27:56.805Z,80.85
2023-03-30T04:30:24.114Z,81.51
2023-03-30T04:33:03.923Z,80.63
2023-03-30T04:35:32.785Z,81.70
2023-03-30T04:38:00.232Z,81.13
2023-03-30T04:40:26.945Z,81.76
2023-03-30T04:42:54.661Z,81.77
2023-03-30T04:45:21.299Z,82.64
2023-03-30T04:47:48.069Z,82.51
2023-03-30T04:50:14.985Z,83.98
2023-03-30T04:52:41.728Z,83.63
2023-03-30T04:55:09.987Z,84.38
2023-03-30T04:57:36.741Z,84.32
2023-03-30T05:00:07.880Z,84.77
2023-03-30T05:02:34.692Z,85.32
2023-03-30T05:05:01.416Z,85.10
2023-03-30T05:07:28.090Z,85.73
2023-03-30T05:09:54.749Z,85.84
2023-03-30T05:12:21.730Z,87.04
2023-03-30T05:14:48.415Z,87.99
2023-03-30T05:17:15.239Z,88.33
2023-03-30T05:19:42.033Z,87.60
2023-03-30T05:22:08.731Z,88.11
2023-03-30T05:24:35.477Z,89.78
2023-03-30T05:27:02.471Z,89.85
2023-03-30T05:29:29.215Z,91.78
2023-03-30T05:31:55.865Z,92.73
2023-03-30T05:34:22.583Z,93.53
2023-03-30T05:36:50.074Z,92.48
2023-03-30T05:39:16.670Z,93.21
2023-03-30T05:41:43.302Z,93.21
2023-03-30T05:44:09.933Z,93.37
2023-03-30T05:46:36.773Z,93.42
2023-03-30T05:49:03.619Z,93.64
2023-03-30T05:51:30.379Z,92.79
2023-03-30T05:53:56.994Z,92.67
2023-03-30T05:56:25.142Z,92.62
2023-03-30T05:58:51.884Z,92.60
2023-03-30T06:01:20.902Z,91.81
2023-03-30T06:03:48.206Z,92.43
2023-03-30T06:06:15.017Z,92.17
2023-03-30T06:08:42.093Z,91.46
2023-03-30T06:11:08.758Z,90.60
2023-03-30T06:13:35.520Z,89.71
2023-03-30T06:16:03.644Z,89.44
2023-03-30T06:18:30.863Z,88.92
2023-03-30T06:20:57.960Z,88.32
2023-03-30T06:23:24.772Z,88.33
2023-03-30T06:25:55.302Z,87.41
2023-03-30T06:28:22.793Z,86.74
2023-03-30T06:30:49.600Z,86.17
2023-03-30T06:33:17.725Z,86.19
2023-03-30T06:35:52.591Z,85.12
2023-03-30T06:38:23.340Z,84.15
2023-03-30T06:40:51.417Z,84.53
2023-03-30T06:43:24.920Z,84.06
2023-03-30T06:45:57.061Z,84.01
2023-03-30T06:48:24.675Z,83.77
2023-03-30T06:50:52.215Z,83.39
2023-03-30T06:53:20.188Z,82.62
2023-03-30T06:55:55.220Z,81.54
2023-03-30T06:58:22.748Z,82.04
2023-03-30T07:00:49.535Z,81.94
2023-03-30T07:03:19.085Z,82.02
2023-03-30T07:05:50.034Z,81.22
2023-03-30T07:08:17.465Z,81.33
2023-03-30T07:10:44.336Z,81.26
2023-03-30T07:13:10.993Z,81.03
2023-03-30T07:15:37.675Z,80.68
2023-03-30T07:18:04.762Z,80.39
2023-03-30T07:20:31.686Z,80.36
2023-03-30T07:22:58.292Z,79.87
2023-03-30T07:25:24.959Z,80.50
2023-03-30T07:27:51.542Z,80.79
2023-03-30T07:30:22.244Z,80.74
2023-03-30T07:32:51.047Z,79.34
2023-03-30T07:35:18.516Z,79.63
2023-03-30T07:37:45.747Z,79.48
2023-03-30T07:40:13.100Z,79.57
2023-03-30T07:42:41.037Z,79.45
2023-03-30T07:45:08.225Z,79.94
2023-03-30T07:47:34.927Z,80.01
2023-03-30T07:50:01.561Z,80.22
2023-03-30T07:52:28.251Z,80.04
2023-03-30T07:54:55.727Z,80.38
2023-03-30T07:57:22.843Z,80.30
2023-03-30T07:59:49.604Z,81.20
2023-03-30T08:02:16.831Z,81.48
2023-03-30T08:04:44.618Z,80.99
2023-03-30T08:07:12.405Z,80.97
2023-03-30T08:09:39.095Z,81.25
2023-03-30T08:12:06.885Z,81.02
2023-03-30T08:14:33.622Z,80.94
2023-03-30T08:17:00.738Z,80.90
2023-03-30T08:19:28.633Z,81.36
2023-03-30T08:21:57.013Z,81.32
2023-03-30T08:24:23.780Z,82.22
2023-03-30T08:26:50.445Z,81.94
2023-03-30T08:29:17.168Z,82.25
2023-03-30T08:31:43.955Z,82.41
2023-03-30T08:34:11.599Z,82.59
2023-03-30T08:36:38.310Z,82.58
2023-03-30T08:39:05.218Z,82.62
2023-03-30T08:42:07.255Z,83.00
2023-03-30T08:44:39.679Z,82.93
2023-03-30T08:47:12.482Z,82.92
2023-03-30T08:49:50.614Z,83.77
2023-03-30T08:52:24.676Z,83.00
2023-03-30T08:54:52.327Z,83.09
2023-03-30T08:57:51.533Z,82.90
2023-03-30T09:00:37.849Z,82.40
2023-03-30T09:03:14.458Z,82.91
2023-03-30T09:06:07.497Z,82.49
2023-03-30T09:08:34.502Z,82.77
2023-03-30T09:11:04.843Z,82.46
2023-03-30T09:13:34.339Z,82.41
2023-03-30T09:16:19.800Z,82.32
2023-03-30T09:18:53.201Z,82.67
2023-03-30T09:21:23.161Z,82.28
2023-03-30T09:23:51.015Z,81.93
2023-03-30T09:26:41.829Z,81.26
2023-03-30T09:29:19.040Z,81.28
2023-03-30T09:31:59.557Z,81.04
2023-03-30T09:34:40.933Z,81.05
2023-03-30T09:37:18.824Z,80.80
2023-03-30T09:42:37.922Z,80.67
2023-03-30T09:45:28.210Z,80.01
2023-03-30T09:47:55.184Z,79.83
2023-03-30T09:50:26.596Z,80.24
2023-03-30T09:53:01.677Z,80.37
2023-03-30T09:55:32.937Z,79.94
2023-03-30T09:58:11.833Z,79.92
2023-03-30T10:00:39.406Z,79.33
2023-03-30T10:03:07.987Z,79.22
2023-03-30T10:05:36.684Z,78.90
2023-03-30T10:08:27.700Z,78.41
2023-03-30T10:10:56.638Z,78.08
2023-03-30T10:13:35.460Z,78.82
2023-03-30T10:16:07.461Z,77.91
2023-03-30T10:18:42.181Z,78.61
2023-03-30T10:21:17.720Z,79.15
2023-03-30T10:23:47.263Z,78.42
2023-03-30T10:26:20.585Z,78.33
2023-03-30T10:29:03.201Z,77.57
2023-03-30T10:31:30.534Z,77.68
2023-03-30T10:33:59.608Z,77.39
2023-03-30T10:36:32.425Z,76.58
2023-03-30T10:39:13.401Z,76.08
2023-03-30T10:41:42.041Z,76.85
2023-03-30T10:44:31.095Z,76.23
2023-03-30T10:47:07.509Z,76.23
2023-03-30T10:49:39.943Z,76.47
2023-03-30T10:52:48.806Z,75.38
2023-03-30T10:55:34.744Z,75.38
2023-03-30T10:58:44.649Z,71.70
2023-03-30T11:01:32.782Z,72.26
2023-03-30T11:04:20.243Z,73.20
2023-03-30T11:06:53.135Z,71.99
2023-03-30T11:09:28.164Z,72.73
2023-03-30T11:12:03.246Z,71.32
2023-03-30T11:14:44.919Z,71.53
2023-03-30T11:17:20.898Z,71.41
2023-03-30T11:19:55.438Z,72.45
2023-03-30T11:22:36.808Z,72.36
2023-03-30T11:25:17.106Z,71.60
2023-03-30T11:27:56.344Z,71.43
2023-03-30T11:30:34.146Z,70.56
2023-03-30T11:33:26.616Z,71.13
2023-03-30T11:36:05.389Z,70.05
2023-03-30T11:39:01.872Z,70.20
2023-03-30T11:41:38.732Z,71.24
2023-03-30T11:44:06.143Z,71.20
2023-03-30T11:46:41.115Z,70.64
2023-03-30T11:49:34.523Z,70.94
2023-03-30T11:52:08.026Z,70.48
2023-03-30T11:55:04.473Z,68.37
2023-03-30T11:57:34.773Z,68.59
2023-03-30T12:00:22.843Z,67.24
2023-03-30T12:03:02.129Z,67.33
2023-03-30T12:05:35.562Z,66.29
2023-03-30T12:08:17.557Z,66.36
2023-03-30T12:10:51.661Z,66.66
2023-03-30T12:13:19.940Z,64.78
2023-03-30T12:15:57.471Z,66.71
2023-03-30T12:18:39.646Z,65.46
2023-03-30T12:21:25.890Z,64.07
2023-03-30T12:24:20.770Z,65.00
2023-03-30T12:27:03.860Z,66.36
2023-03-30T12:32:29.205Z,63.87
2023-03-30T12:34:57.145Z,73.50
2023-03-30T12:37:35.621Z,81.85
2023-03-30T12:40:14.631Z,86.32
2023-03-30T12:42:55.934Z,87.25
2023-03-30T12:45:32.260Z,88.69
2023-03-30T12:48:24.451Z,89.73
2023-03-30T12:51:16.009Z,90.50
2023-03-30T12:54:19.212Z,92.34
2023-03-30T12:56:54.779Z,94.28
2023-03-30T12:59:49.019Z,96.50
2023-03-30T13:02:37.360Z,98.11
2023-03-30T13:05:16.930Z,98.38
2023-03-30T13:07:44.091Z,100.00
2023-03-30T13:10:29.507Z,99.71
2023-03-30T13:12:58.124Z,99.64
2023-03-30T13:15:39.783Z,98.80
2023-03-30T13:18:09.396Z,97.69
2023-03-30T13:20:56.353Z,97.70
2023-03-30T13:23:22.934Z,97.47
2023-03-30T13:26:32.352Z,98.44
2023-03-30T13:29:11.644Z,97.07
2023-03-30T13:32:06.197Z,97.96
2023-03-30T13:34:46.644Z,97.48
2023-03-30T13:38:04.290Z,95.18
2023-03-30T13:40:43.835Z,90.88
2023-03-30T13:43:38.994Z,92.77
2023-03-30T13:46:17.013Z,88.71
2023-03-30T13:49:02.218Z,87.76
2023-03-30T13:51:30.161Z,87.06
2023-03-30T13:54:01.802Z,85.96
2023-03-30T13:56:33.473Z,80.23
2023-03-30T13:59:07.614Z,80.99
2023-03-30T14:01:35.678Z,81.38
2023-03-30T14:04:04.050Z,82.31
2023-03-30T14:06:34.474Z,81.63
2023-03-30T14:09:05.509Z,81.68
2023-03-30T14:11:45.573Z,81.72
2023-03-30T14:14:36.994Z,79.24
2023-03-30T14:17:14.664Z,82.33
2023-03-30T14:19:56.684Z,80.00
2023-03-30T14:22:28.057Z,80.58
2023-03-30T14:25:02.024Z,79.16
2023-03-30T14:27:39.344Z,80.50
2023-03-30T14:30:29.263Z,81.21
2023-03-30T14:33:10.414Z,78.35
2023-03-30T14:35:53.575Z,79.64
2023-03-30T14:38:30.406Z,78.11
2023-03-30T14:40:58.275Z,78.18
2023-03-30T14:43:31.461Z,80.10
2023-03-30T14:46:03.332Z,78.83
2023-03-30T14:48:33.498Z,76.18
2023-03-30T14:51:07.871Z,76.06
2023-03-30T14:53:35.605Z,74.13
2023-03-30T14:56:03.865Z,74.68
2023-03-30T14:58:32.685Z,72.45
2023-03-30T15:01:03.652Z,72.20
2023-03-30T15:03:34.800Z,71.33
2023-03-30T15:06:07.039Z,69.45
2023-03-30T15:08:39.476Z,70.18
2023-03-30T15:11:13.317Z,68.45
2023-03-30T15:13:52.797Z,69.65
2023-03-30T15:16:26.293Z,67.62
2023-03-30T15:18:55.714Z,68.26
2023-03-30T15:21:22.427Z,68.01
2023-03-30T15:23:51.044Z,65.27
2023-03-30T15:26:18.685Z,64.89
2023-03-30T15:28:51.119Z,67.35
2023-03-30T15:31:19.238Z,67.63
2023-03-30T15:33:47.212Z,64.60
2023-03-30T15:36:26.337Z,64.52
2023-03-30T15:38:58.765Z,64.38
2023-03-30T15:41:47.643Z,64.70
2023-03-30T15:44:21.911Z,63.84
2023-03-30T15:46:49.988Z,64.48
2023-03-30T15:49:20.462Z,65.45
2023-03-30T15:51:51.909Z,64.27
2023-03-30T15:54:26.955Z,63.30
2023-03-30T15:56:59.609Z,66.12
2023-03-30T15:59:32.886Z,65.36
2023-03-30T16:02:15.147Z,65.07
2023-03-30T16:04:42.153Z,64.65
2023-03-30T16:07:23.199Z,65.81
2023-03-30T16:09:49.976Z,66.29
2023-03-30T16:12:23.835Z,66.07
2023-03-30T16:14:51.148Z,65.75
2023-03-30T16:17:18.717Z,68.46
2023-03-30T16:19:45.829Z,68.84
2023-03-30T16:22:14.203Z,68.76
2023-03-30T16:24:42.158Z,69.37
2023-03-30T16:27:11.477Z,69.06
2023-03-30T16:29:38.171Z,69.00
2023-03-30T16:32:05.155Z,68.74
2023-03-30T16:34:31.882Z,69.11
2023-03-30T16:36:58.527Z,69.07
2023-03-30T16:39:27.877Z,69.54
2023-03-30T16:41:55.595Z,69.08
2023-03-30T16:44:24.073Z,69.29
2023-03-30T16:46:51.708Z,69.62
2023-03-30T16:49:26.129Z,69.97
2023-03-30T16:51:57.544Z,71.39
2023-03-30T16:54:31.945Z,72.25
2023-03-30T16:57:00.662Z,73.04
2023-03-30T16:59:30.276Z,73.17
2023-03-30T17:01:57.444Z,72.38
2023-03-30T17:04:24.149Z,73.95
2023-03-30T17:06:51.102Z,72.79
2023-03-30T17:09:19.544Z,73.44
2023-03-30T17:11:47.908Z,72.86
2023-03-30T17:14:15.494Z,72.78
2023-03-30T17:16:42.861Z,74.34
2023-03-30T17:19:13.889Z,73.71
2023-03-30T17:21:42.951Z,74.16
2023-03-30T17:24:15.119Z,74.69
2023-03-30T17:26:42.158Z,75.04
2023-03-30T17:29:09.711Z,77.30
2023-03-30T17:31:38.345Z,77.80
2023-03-30T17:34:06.761Z,77.78
2023-03-30T17:36:33.468Z,78.33
2023-03-30T17:39:00.102Z,78.84
2023-03-30T17:41:26.888Z,78.23
2023-03-30T17:43:53.642Z,78.41
2023-03-30T17:46:20.780Z,78.34
2023-03-30T17:48:48.317Z,79.26
2023-03-30T17:51:14.939Z,78.56
2023-03-30T17:53:41.679Z,79.05
2023-03-30T17:56:12.556Z,78.69
2023-03-30T17:58:39.273Z,79.15
2023-03-30T18:01:09.096Z,78.32
2023-03-30T18:03:38.606Z,78.91
2023-03-30T18:06:05.941Z,79.33
2023-03-30T18:08:32.769Z,78.99
2023-03-30T18:11:00.770Z,78.12
2023-03-30T18:13:29.458Z,78.75
2023-03-30T18:15:58.630Z,78.76
2023-03-30T18:18:29.455Z,79.12
2023-03-30T18:21:02.513Z,78.77
2023-03-30T18:23:30.643Z,78.49
2023-03-30T18:25:57.668Z,78.79
2023-03-30T18:28:26.166Z,78.56
2023-03-30T18:30:55.505Z,78.48
2023-03-30T18:33:22.423Z,78.38
2023-03-30T18:35:51.110Z,78.72
2023-03-30T18:38:20.776Z,78.07
2023-03-30T18:40:50.129Z,78.73
2023-03-30T18:43:16.958Z,78.26
2023-03-30T18:45:46.293Z,78.60
2023-03-30T18:48:14.630Z,79.02
2023-03-30T18:50:46.383Z,78.36
2023-03-30T18:53:16.432Z,78.97
2023-03-30T18:55:46.000Z,79.69
2023-03-30T18:58:24.383Z,79.16
2023-03-30T19:00:52.505Z,81.74
2023-03-30T19:03:20.293Z,81.75
2023-03-30T19:05:48.234Z,81.65
2023-03-30T19:08:19.754Z,82.25
2023-03-30T19:10:48.954Z,82.84
2023-03-30T19:13:18.031Z,83.80
2023-03-30T19:15:45.817Z,84.49
2023-03-30T19:18:13.922Z,86.43
2023-03-30T19:20:41.793Z,86.37
2023-03-30T19:23:11.831Z,86.34
2023-03-30T19:25:38.903Z,87.72
2023-03-30T19:28:06.459Z,88.55
2023-03-30T19:30:36.678Z,88.80
2023-03-30T19:33:08.434Z,89.37
2023-03-30T19:35:35.812Z,90.75
2023-03-30T19:38:02.537Z,90.99
2023-03-30T19:40:29.183Z,90.94
2023-03-30T19:42:55.909Z,90.60
2023-03-30T19:45:23.663Z,90.15
2023-03-30T19:47:51.538Z,89.90
2023-03-30T19:50:20.009Z,90.15
2023-03-30T19:52:50.154Z,92.13
2023-03-30T19:55:18.847Z,93.11
2023-03-30T19:57:46.081Z,96.92
2023-03-30T20:00:16.001Z,98.58
2023-03-30T20:02:45.531Z,99.89
2023-03-30T20:05:13.042Z,98.82
2023-03-30T20:07:40.978Z,98.41
2023-03-30T20:10:10.510Z,98.61
2023-03-30T20:12:37.505Z,98.78
2023-03-30T20:15:06.156Z,97.74
2023-03-30T20:17:34.210Z,97.26
2023-03-30T20:20:07.206Z,97.25
2023-03-30T20:22:36.254Z,97.01
2023-03-30T20:25:07.582Z,97.51
2023-03-30T20:27:35.588Z,96.86
2023-03-30T20:30:03.082Z,97.43
2023-03-30T20:32:29.707Z,97.31
2023-03-30T20:34:56.426Z,97.48
2023-03-30T20:37:23.234Z,99.48
2023-03-30T20:39:50.604Z,99.52
2023-03-30T20:42:25.891Z,100.00
2023-03-30T20:44:53.611Z,100.00
2023-03-30T20:47:23.450Z,100.00
2023-03-30T20:49:50.340Z,100.00
2023-03-30T20:52:17.121Z,99.42
2023-03-30T20:54:44.799Z,100.00
2023-03-30T20:57:12.156Z,100.00
2023-03-30T20:59:39.621Z,100.00
2023-03-30T21:02:07.000Z,98.24
2023-03-30T21:04:34.176Z,99.66
2023-03-30T21:07:00.957Z,100.00
2023-03-30T21:09:27.910Z,99.45
2023-03-30T21:11:54.539Z,98.69
2023-03-30T21:14:21.304Z,100.00
2023-03-30T21:16:47.944Z,99.54
2023-03-30T21:19:14.724Z,99.23
2023-03-30T21:21:41.522Z,99.42
2023-03-30T21:24:10.358Z,99.69
2023-03-30T21:26:37.945Z,99.33
2023-03-30T21:29:05.717Z,98.97
2023-03-30T21:31:32.546Z,98.70
2023-03-30T21:34:00.406Z,98.30
2023-03-30T21:36:27.424Z,97.23
2023-03-30T21:38:56.222Z,97.53
2023-03-30T21:41:24.348Z,97.63
2023-03-30T21:43:51.043Z,97.23
2023-03-30T21:46:23.206Z,96.68
2023-03-30T21:48:53.740Z,95.88
2023-03-30T21:51:27.443Z,95.18
2023-03-30T21:53:55.704Z,94.35
2023-03-30T21:56:24.666Z,94.32
2023-03-30T21:58:51.822Z,94.54
2023-03-30T22:01:19.984Z,94.76
2023-03-30T22:03:46.756Z,94.40
2023-03-30T22:06:16.337Z,94.13
2023-03-30T22:08:45.146Z,94.20
2023-03-30T22:11:17.497Z,94.14
2023-03-30T22:13:46.111Z,93.34
2023-03-30T22:16:22.397Z,92.94
2023-03-30T22:18:50.354Z,93.59
2023-03-30T22:21:34.612Z,93.02
2023-03-30T22:24:06.734Z,93.01
2023-03-30T22:26:34.878Z,93.35
2023-03-30T22:29:01.549Z,93.16
2023-03-30T22:31:31.110Z,92.51
2023-03-30T22:33:57.727Z,92.10
2023-03-30T22:36:26.773Z,92.04
2023-03-30T22:38:53.419Z,92.21
2023-03-30T22:41:24.010Z,91.49
2023-03-30T22:43:52.144Z,91.77
2023-03-30T22:46:18.899Z,91.85
2023-03-30T22:48:45.653Z,92.30
2023-03-30T22:51:26.387Z,93.23
2023-03-30T22:53:57.964Z,92.19
2023-03-30T22:56:24.827Z,91.93
2023-03-30T22:58:51.690Z,91.42
2023-03-30T23:01:19.665Z,91.14
2023-03-30T23:03:47.657Z,91.56
2023-03-30T23:06:14.461Z,91.79
2023-03-30T23:08:41.092Z,92.58
2023-03-30T23:11:08.377Z,92.36
2023-03-30T23:13:38.352Z,92.44
2023-03-30T23:16:06.777Z,92.43
2023-03-30T23:18:34.507Z,92.47
2023-03-30T23:21:06.158Z,92.31
2023-03-30T23:23:35.377Z,92.35
2023-03-30T23:26:03.059Z,92.39
2023-03-30T23:28:30.605Z,92.82
2023-03-30T23:30:57.938Z,93.08
2023-03-30T23:33:24.972Z,93.55
2023-03-30T23:35:53.347Z,93.23
2023-03-30T23:38:20.165Z,94.13
2023-03-30T23:40:46.990Z,93.61
2023-03-30T23:43:13.686Z,93.94
2023-03-30T23:45:43.227Z,94.01
2023-03-30T23:48:09.870Z,93.98
2023-03-30T23:50:37.094Z,93.50
2023-03-30T23:53:03.924Z,93.98
2023-03-30T23:55:31.079Z,93.85
2023-03-30T23:57:57.636Z,94.03
